Time,TemperatureF,DewpointF,PressureIn,WindDirection,WindDirectionDegrees,WindSpeedMPH,WindSpeedGustMPH,Humidity,HourlyPrecipIn,Conditions,Clouds,dailyrainin,SoftwareType,DateUTC
2013-09-07 00:00:00,48.0,45.2,30.14,SE,142,1.2,0.0,90,0.00,CLR,,0.00,WeatherDisplay:10.37,2013-09-07 04:00:00,
2013-09-07 00:01:00,48.0,45.2,30.14,SE,142,0.0,0.0,90,0.00,CLR,,0.00,WeatherDisplay:10.37,2013-09-07 04:01:00,
2013-09-07 00:02:00,47.9,45.1,30.14,SE,142,1.0,1.0,90,0.00,CLR,,0.00,WeatherDisplay:10.37,2013-09-07 04:02:00,
2013-09-07 00:07:00,47.8,45.0,30.14,SE,142,0.0,0.0,90,0.00,CLR,,0.00,WeatherDisplay:10.37,2013-09-07 04:07:00,
2013-09-07 00:12:00,47.7,44.9,30.14,SE,142,0.0,0.0,90,0.00,CLR,,0.00,WeatherDisplay:10.37,2013-09-07 04:12:00,
2013-09-07 00:17:00,47.5,44.7,30.14,SE,142,1.2,0.0,90,0.00,CLR,,0.00,WeatherDisplay:10.37,2013-09-07 04:17:00,
2013-09-07 00:22:00,47.3,44.5,30.14,SE,142,0.0,0.0,90,0.00,CLR,,0.00,WeatherDisplay:10.37,2013-09-07 04:22:00,
2013-09-07 00:27:00,47.2,44.7,30.14,SE,142,1.2,0.0,91,0.00,CLR,,0.00,WeatherDisplay:10.37,2013-09-07 04:27:00,
2013-09-07 00:32:00,47.0,44.2,30.14,SE,142,0.0,0.0,90,0.00,CLR,,0.00,WeatherDisplay:10.37,2013-09-07 04:32:00,
2013-09-07 00:37:00,46.9,44.4,30.13,SE,142,1.2,1.2,91,0.00,CLR,,0.00,WeatherDisplay:10.37,2013-09-07 04:37:00,
2013-09-07 00:42:00,46.8,44.3,30.13,SE,142,1.2,0.0,91,0.00,CLR,,0.00,WeatherDisplay:10.37,2013-09-07 04:42:00,
2013-09-07 00:47:00,46.6,44.1,30.13,SE,142,0.0,0.0,91,0.00,CLR,,0.00,WeatherDisplay:10.37,2013-09-07 04:47:00,
2013-09-07 00:52:00,46.3,43.8,30.13,SE,142,0.0,0.0,91,0.00,CLR,,0.00,WeatherDisplay:10.37,2013-09-07 04:52:00,
2013-09-07 00:57:00,46.0,43.5,30.13,SE,142,0.0,0.0,91,0.00,CLR,,0.00,WeatherDisplay:10.37,2013-09-07 04:57:00,
2013-09-07 01:02:00,45.9,43.4,30.14,SE,142,0.0,0.0,91,0.00,CLR,,0.00,WeatherDisplay:10.37,2013-09-07 05:02:00,
2013-09-07 01:07:00,45.8,43.3,30.13,SE,142,0.0,0.0,91,0.00,CLR,,0.00,WeatherDisplay:10.37,2013-09-07 05:07:00,
2013-09-07 01:12:00,45.6,43.1,30.14,SE,142,0.0,0.0,91,0.00,CLR,,0.00,WeatherDisplay:10.37,2013-09-07 05:12:00,
2013-09-07 01:17:00,45.5,43.0,30.14,SE,142,0.0,0.0,91,0.00,CLR,,0.00,WeatherDisplay:10.37,2013-09-07 05:17:00,
2013-09-07 01:22:00,45.4,42.9,30.14,SE,142,1.2,0.0,91,0.00,CLR,,0.00,WeatherDisplay:10.37,2013-09-07 05:22:00,
2013-09-07 01:27:00,45.4,42.9,30.14,SE,142,0.0,0.0,91,0.00,CLR,,0.00,WeatherDisplay:10.37,2013-09-07 05:27:00,
2013-09-07 01:33:00,45.3,43.1,30.14,SE,142,0.0,0.0,92,0.00,CLR,,0.00,WeatherDisplay:10.37,2013-09-07 05:33:00,
2013-09-07 01:38:00,45.2,43.0,30.14,SE,142,0.0,0.0,92,0.00,CLR,,0.00,WeatherDisplay:10.37,2013-09-07 05:38:00,
2013-09-07 01:43:00,45.0,42.8,30.14,SE,142,0.0,0.0,92,0.00,CLR,,0.00,WeatherDisplay:10.37,2013-09-07 05:43:00,
2013-09-07 01:48:00,45.0,42.8,30.14,SE,142,0.0,0.0,92,0.00,CLR,,0.00,WeatherDisplay:10.37,2013-09-07 05:48:00,
2013-09-07 01:53:00,45.0,42.8,30.14,SE,142,1.2,0.0,92,0.00,CLR,,0.00,WeatherDisplay:10.37,2013-09-07 05:53:00,
2013-09-07 01:58:00,44.9,42.7,30.14,SE,142,0.0,0.0,92,0.00,CLR,,0.00,WeatherDisplay:10.37,2013-09-07 05:58:00,
2013-09-07 02:03:00,44.9,42.7,30.14,SE,142,1.2,1.2,92,0.00,CLR,,0.00,WeatherDisplay:10.37,2013-09-07 06:03:00,
2013-09-07 02:08:00,44.9,42.7,30.13,SE,142,1.2,0.0,92,0.00,CLR,,0.00,WeatherDisplay:10.37,2013-09-07 06:08:00,
2013-09-07 02:13:00,45.0,42.8,30.13,SE,142,1.2,1.2,92,0.00,CLR,,0.00,WeatherDisplay:10.37,2013-09-07 06:13:00,
2013-09-07 02:18:00,45.0,42.8,30.12,SE,142,0.0,0.0,92,0.00,CLR,,0.00,WeatherDisplay:10.37,2013-09-07 06:18:00,
2013-09-07 02:23:00,45.0,42.8,30.12,SE,142,0.0,0.1,92,0.00,CLR,,0.00,WeatherDisplay:10.37,2013-09-07 06:23:00,
2013-09-07 02:28:00,45.0,42.8,30.13,SE,142,1.2,1.2,92,0.00,CLR,,0.00,WeatherDisplay:10.37,2013-09-07 06:28:00,
2013-09-07 02:33:00,45.0,42.8,30.12,SE,142,1.2,1.2,92,0.00,CLR,,0.00,WeatherDisplay:10.37,2013-09-07 06:33:00,
2013-09-07 02:38:00,45.1,43.2,30.12,SE,142,0.0,0.0,93,0.00,CLR,,0.00,WeatherDisplay:10.37,2013-09-07 06:38:00,
2013-09-07 02:43:00,45.1,43.2,30.12,SE,142,1.2,1.2,93,0.00,CLR,,0.00,WeatherDisplay:10.37,2013-09-07 06:43:00,
2013-09-07 02:48:00,45.1,43.2,30.12,SE,142,1.2,0.0,93,0.00,CLR,,0.00,WeatherDisplay:10.37,2013-09-07 06:48:00,
2013-09-07 02:53:00,45.2,43.3,30.12,SE,142,0.0,0.0,93,0.00,CLR,,0.00,WeatherDisplay:10.37,2013-09-07 06:53:00,
2013-09-07 02:58:00,45.2,43.3,30.12,SE,142,0.0,0.0,93,0.00,CLR,,0.00,WeatherDisplay:10.37,2013-09-07 06:58:00,
2013-09-07 03:03:00,45.4,43.5,30.12,SE,142,0.0,0.0,93,0.00,CLR,,0.00,WeatherDisplay:10.37,2013-09-07 07:03:00,
2013-09-07 03:08:00,45.6,43.7,30.12,SE,142,0.0,0.0,93,0.00,CLR,,0.00,WeatherDisplay:10.37,2013-09-07 07:08:00,
2013-09-07 03:13:00,45.6,43.7,30.12,SE,142,0.0,0.0,93,0.00,CLR,,0.00,WeatherDisplay:10.37,2013-09-07 07:13:00,
2013-09-07 03:18:00,45.8,43.9,30.12,SE,142,0.0,0.0,93,0.00,CLR,,0.00,WeatherDisplay:10.37,2013-09-07 07:18:00,
2013-09-07 03:23:00,46.2,44.3,30.12,SE,142,0.0,0.0,93,0.00,CLR,,0.00,WeatherDisplay:10.37,2013-09-07 07:23:00,
2013-09-07 03:28:00,46.3,44.4,30.12,SE,142,0.0,0.0,93,0.00,CLR,,0.00,WeatherDisplay:10.37,2013-09-07 07:28:00,
2013-09-07 03:33:00,46.4,44.5,30.11,SE,142,1.2,1.2,93,0.00,CLR,,0.00,WeatherDisplay:10.37,2013-09-07 07:33:00,
2013-09-07 03:38:00,46.5,44.6,30.11,SE,142,1.2,1.2,93,0.00,CLR,,0.00,WeatherDisplay:10.37,2013-09-07 07:38:00,
2013-09-07 03:43:00,46.6,44.7,30.11,SE,142,0.0,0.0,93,0.00,CLR,,0.00,WeatherDisplay:10.37,2013-09-07 07:43:00,
2013-09-07 03:48:00,46.4,44.5,30.11,SE,142,0.0,0.0,93,0.00,CLR,,0.00,WeatherDisplay:10.37,2013-09-07 07:48:00,
2013-09-07 03:53:00,46.3,44.4,30.11,SE,142,1.2,1.2,93,0.00,CLR,,0.00,WeatherDisplay:10.37,2013-09-07 07:53:00,
2013-09-07 03:58:00,46.3,44.4,30.11,SE,142,1.2,1.2,93,0.00,CLR,,0.00,WeatherDisplay:10.37,2013-09-07 07:58:00,
2013-09-07 04:03:00,46.6,44.7,30.11,SE,142,0.0,0.0,93,0.00,CLR,,0.00,WeatherDisplay:10.37,2013-09-07 08:03:00,
2013-09-07 04:08:00,46.7,44.8,30.11,SE,142,1.2,1.2,93,0.00,CLR,,0.00,WeatherDisplay:10.37,2013-09-07 08:08:00,
2013-09-07 04:13:00,46.9,45.0,30.11,SE,142,0.0,0.0,93,0.00,CLR,,0.00,WeatherDisplay:10.37,2013-09-07 08:13:00,
2013-09-07 04:18:00,46.7,44.8,30.11,SE,142,0.0,0.0,93,0.00,CLR,,0.00,WeatherDisplay:10.37,2013-09-07 08:18:00,
2013-09-07 04:23:00,47.0,45.1,30.11,SE,142,1.2,1.2,93,0.00,CLR,,0.00,WeatherDisplay:10.37,2013-09-07 08:23:00,
2013-09-07 04:28:00,47.2,45.3,30.11,SE,142,0.0,0.0,93,0.00,CLR,,0.00,WeatherDisplay:10.37,2013-09-07 08:28:00,
2013-09-07 04:33:00,47.2,45.3,30.11,SE,142,0.0,0.0,93,0.00,CLR,,0.00,WeatherDisplay:10.37,2013-09-07 08:33:00,
2013-09-07 04:38:00,47.4,45.5,30.11,SE,142,0.0,0.0,93,0.00,CLR,,0.00,WeatherDisplay:10.37,2013-09-07 08:38:00,
2013-09-07 04:43:00,47.4,45.5,30.11,SE,142,1.2,0.0,93,0.00,CLR,,0.00,WeatherDisplay:10.37,2013-09-07 08:43:00,
2013-09-07 04:48:00,47.6,46.0,30.11,SE,142,0.0,0.0,94,0.00,CLR,,0.00,WeatherDisplay:10.37,2013-09-07 08:48:00,
2013-09-07 04:53:00,47.7,46.1,30.11,SE,142,0.0,0.0,94,0.00,CLR,,0.00,WeatherDisplay:10.37,2013-09-07 08:53:00,
2013-09-07 04:58:00,47.6,45.7,30.11,SE,142,1.2,0.0,93,0.00,CLR,,0.00,WeatherDisplay:10.37,2013-09-07 08:58:00,
2013-09-07 05:03:00,47.6,45.7,30.10,SE,142,0.0,0.0,93,0.00,CLR,,0.00,WeatherDisplay:10.37,2013-09-07 09:03:00,
2013-09-07 05:08:00,47.6,45.7,30.10,SE,142,0.0,0.0,93,0.00,CLR,,0.00,WeatherDisplay:10.37,2013-09-07 09:08:00,
2013-09-07 05:13:00,47.4,45.5,30.10,SE,142,0.0,0.0,93,0.00,CLR,,0.00,WeatherDisplay:10.37,2013-09-07 09:13:00,
2013-09-07 05:18:00,47.4,45.5,30.10,SE,142,1.2,0.0,93,0.00,CLR,,0.00,WeatherDisplay:10.37,2013-09-07 09:18:00,
2013-09-07 05:23:00,47.3,45.4,30.10,SE,142,0.0,0.0,93,0.00,CLR,,0.00,WeatherDisplay:10.37,2013-09-07 09:23:00,
2013-09-07 05:28:00,47.2,45.3,30.10,SE,142,0.0,0.0,93,0.00,CLR,,0.00,WeatherDisplay:10.37,2013-09-07 09:28:00,
2013-09-07 05:33:00,47.1,45.2,30.10,SE,142,0.0,0.0,93,0.00,CLR,,0.00,WeatherDisplay:10.37,2013-09-07 09:33:00,
2013-09-07 05:38:00,47.1,45.2,30.10,SE,142,0.0,0.0,93,0.00,CLR,,0.00,WeatherDisplay:10.37,2013-09-07 09:38:00,
2013-09-07 05:43:00,47.2,45.3,30.10,SE,142,0.0,0.0,93,0.00,CLR,,0.00,WeatherDisplay:10.37,2013-09-07 09:43:00,
2013-09-07 05:48:00,47.3,45.4,30.09,SE,142,0.0,0.0,93,0.00,CLR,,0.00,WeatherDisplay:10.37,2013-09-07 09:48:00,
2013-09-07 05:53:00,47.3,45.4,30.09,SE,142,0.0,0.0,93,0.00,CLR,,0.00,WeatherDisplay:10.37,2013-09-07 09:53:00,
2013-09-07 05:58:00,47.3,45.4,30.09,SE,142,0.0,0.0,93,0.00,CLR,,0.00,WeatherDisplay:10.37,2013-09-07 09:58:00,
2013-09-07 06:03:00,47.3,45.4,30.09,SE,142,0.0,0.0,93,0.00,CLR,,0.00,WeatherDisplay:10.37,2013-09-07 10:03:00,
2013-09-07 06:08:00,47.2,45.3,30.09,SE,142,0.0,0.0,93,0.00,CLR,,0.00,WeatherDisplay:10.37,2013-09-07 10:08:00,
2013-09-07 06:13:00,47.0,45.1,30.10,SE,142,0.0,0.0,93,0.00,CLR,,0.00,WeatherDisplay:10.37,2013-09-07 10:13:00,
2013-09-07 06:18:00,47.0,45.1,30.09,SE,142,1.2,1.2,93,0.00,CLR,,0.00,WeatherDisplay:10.37,2013-09-07 10:18:00,
2013-09-07 06:23:00,47.0,45.1,30.09,SE,142,0.0,0.0,93,0.00,CLR,,0.00,WeatherDisplay:10.37,2013-09-07 10:23:00,
2013-09-07 06:28:00,47.1,45.2,30.09,SE,142,0.0,0.0,93,0.00,CLR,,0.00,WeatherDisplay:10.37,2013-09-07 10:28:00,
2013-09-07 06:33:00,47.0,45.1,30.10,SE,142,0.0,0.0,93,0.00,CLR,,0.00,WeatherDisplay:10.37,2013-09-07 10:33:00,
2013-09-07 06:38:00,47.0,45.1,30.10,SE,142,0.0,0.0,93,0.00,CLR,,0.00,WeatherDisplay:10.37,2013-09-07 10:38:00,
2013-09-07 06:43:00,47.0,45.1,30.10,SE,142,1.0,1.0,93,0.00,CLR,,0.00,WeatherDisplay:10.37,2013-09-07 10:43:00,
2013-09-07 06:48:00,47.1,45.2,30.10,SE,142,0.0,0.0,93,0.00,CLR,,0.00,WeatherDisplay:10.37,2013-09-07 10:48:00,
2013-09-07 06:53:00,47.1,45.2,30.10,SE,142,0.0,0.0,93,0.00,CLR,,0.00,WeatherDisplay:10.37,2013-09-07 10:53:00,
2013-09-07 06:58:00,47.2,45.3,30.09,SE,142,0.0,0.0,93,0.00,CLR,,0.00,WeatherDisplay:10.37,2013-09-07 10:58:00,
2013-09-07 07:03:00,47.2,45.3,30.09,SE,142,0.0,0.0,93,0.00,CLR,,0.00,WeatherDisplay:10.37,2013-09-07 11:03:00,
2013-09-07 07:08:00,47.3,45.4,30.09,SE,142,0.0,0.0,93,0.00,CLR,,0.00,WeatherDisplay:10.37,2013-09-07 11:08:00,
2013-09-07 07:13:00,47.4,45.5,30.09,SE,142,0.0,0.0,93,0.00,CLR,,0.00,WeatherDisplay:10.37,2013-09-07 11:13:00,
2013-09-07 07:18:00,47.5,45.6,30.09,SE,142,0.0,0.0,93,0.00,CLR,,0.00,WeatherDisplay:10.37,2013-09-07 11:18:00,
2013-09-07 07:23:00,47.7,45.8,30.10,SE,142,0.0,0.0,93,0.00,CLR,,0.00,WeatherDisplay:10.37,2013-09-07 11:23:00,
2013-09-07 07:28:00,47.8,45.6,30.10,SE,142,0.0,0.0,92,0.00,CLR,,0.00,WeatherDisplay:10.37,2013-09-07 11:28:00,
2013-09-07 07:33:00,48.1,46.2,30.10,SE,142,0.0,0.0,93,0.00,CLR,,0.00,WeatherDisplay:10.37,2013-09-07 11:33:00,
2013-09-07 07:38:00,48.3,46.1,30.10,SE,142,0.0,0.0,92,0.00,CLR,,0.00,WeatherDisplay:10.37,2013-09-07 11:38:00,
2013-09-07 07:43:00,48.5,46.3,30.09,SE,142,0.0,0.0,92,0.00,CLR,,0.00,WeatherDisplay:10.37,2013-09-07 11:43:00,
2013-09-07 07:48:00,48.9,46.7,30.09,SE,142,0.0,0.0,92,0.00,CLR,,0.00,WeatherDisplay:10.37,2013-09-07 11:48:00,
2013-09-07 07:53:00,49.2,47.0,30.09,SE,142,1.0,1.0,92,0.00,CLR,,0.00,WeatherDisplay:10.37,2013-09-07 11:53:00,
2013-09-07 07:58:00,49.6,47.4,30.08,SE,142,1.2,1.2,92,0.00,CLR,,0.00,WeatherDisplay:10.37,2013-09-07 11:58:00,
2013-09-07 08:03:00,50.1,47.6,30.08,SE,142,0.0,0.0,91,0.00,CLR,,0.00,WeatherDisplay:10.37,2013-09-07 12:03:00,
2013-09-07 08:08:00,50.5,48.0,30.07,SE,142,0.0,0.0,91,0.00,CLR,,0.00,WeatherDisplay:10.37,2013-09-07 12:08:00,
2013-09-07 08:13:00,51.2,48.7,30.07,SE,142,0.0,0.0,91,0.00,CLR,,0.00,WeatherDisplay:10.37,2013-09-07 12:13:00,
2013-09-07 08:18:00,52.4,49.6,30.07,SE,142,2.3,2.3,90,0.00,CLR,,0.00,WeatherDisplay:10.37,2013-09-07 12:18:00,
2013-09-07 08:23:00,52.8,49.3,30.07,SE,142,0.0,0.0,88,0.00,CLR,,0.00,WeatherDisplay:10.37,2013-09-07 12:23:00,
2013-09-07 08:28:00,53.2,49.4,30.06,SE,142,1.2,1.2,87,0.00,CLR,,0.00,WeatherDisplay:10.37,2013-09-07 12:28:00,
2013-09-07 08:33:00,53.5,49.1,30.06,SE,142,1.2,0.0,85,0.00,CLR,,0.00,WeatherDisplay:10.37,2013-09-07 12:33:00,
2013-09-07 08:38:00,53.7,48.7,30.07,SE,142,1.2,1.2,83,0.00,CLR,,0.00,WeatherDisplay:10.37,2013-09-07 12:38:00,
2013-09-07 08:43:00,54.1,48.4,30.07,SE,142,2.3,2.3,81,0.00,CLR,,0.00,WeatherDisplay:10.37,2013-09-07 12:43:00,
2013-09-07 08:48:00,54.6,48.6,30.07,East,86,2.3,2.3,80,0.00,CLR,,0.00,WeatherDisplay:10.37,2013-09-07 12:48:00,
2013-09-07 08:53:00,55.1,47.7,30.07,NW,322,3.5,3.5,76,0.00,CLR,,0.00,WeatherDisplay:10.37,2013-09-07 12:53:00,
2013-09-07 08:58:00,55.7,48.2,30.07,NW,323,2.3,2.3,76,0.00,CLR,,0.00,WeatherDisplay:10.37,2013-09-07 12:58:00,
2013-09-07 09:03:00,56.2,48.7,30.07,NW,317,2.3,0.0,76,0.00,CLR,,0.00,WeatherDisplay:10.37,2013-09-07 13:03:00,
2013-09-07 09:08:00,56.4,48.6,30.07,NW,317,0.0,0.0,75,0.00,CLR,,0.00,WeatherDisplay:10.37,2013-09-07 13:08:00,
2013-09-07 09:13:00,56.6,48.8,30.06,NW,317,1.2,1.2,75,0.00,CLR,,0.00,WeatherDisplay:10.37,2013-09-07 13:13:00,
2013-09-07 09:18:00,56.7,49.2,30.06,NW,317,0.0,0.0,76,0.00,CLR,,0.00,WeatherDisplay:10.37,2013-09-07 13:18:00,
2013-09-07 09:23:00,56.6,49.5,30.06,NW,317,1.2,0.0,77,0.00,CLR,,0.00,WeatherDisplay:10.37,2013-09-07 13:23:00,
2013-09-07 09:28:00,56.7,48.5,30.06,NW,317,0.0,0.0,74,0.00,CLR,,0.00,WeatherDisplay:10.37,2013-09-07 13:28:00,
2013-09-07 09:33:00,57.0,48.4,30.06,NW,320,2.3,2.3,73,0.00,CLR,,0.00,WeatherDisplay:10.37,2013-09-07 13:33:00,
2013-09-07 09:38:00,57.4,48.1,30.06,NW,319,2.3,2.3,71,0.00,CLR,,0.00,WeatherDisplay:10.37,2013-09-07 13:38:00,
2013-09-07 09:43:00,57.7,48.0,30.06,NW,319,2.3,2.3,70,0.00,CLR,,0.00,WeatherDisplay:10.37,2013-09-07 13:43:00,
2013-09-07 09:48:00,58.2,49.2,30.06,NW,319,1.2,1.2,72,0.00,CLR,,0.00,WeatherDisplay:10.37,2013-09-07 13:48:00,
2013-09-07 09:53:00,58.7,49.3,30.05,East,94,2.3,2.3,71,0.00,CLR,,0.00,WeatherDisplay:10.37,2013-09-07 13:53:00,
2013-09-07 09:58:00,59.0,48.4,30.05,West,269,4.0,4.0,68,0.00,CLR,,0.00,WeatherDisplay:10.37,2013-09-07 13:58:00,
2013-09-07 10:03:00,59.0,48.1,30.05,West,272,2.3,2.3,67,0.00,CLR,,0.00,WeatherDisplay:10.37,2013-09-07 14:03:00,
2013-09-07 10:08:00,59.2,47.8,30.05,West,263,1.2,1.2,66,0.00,CLR,,0.00,WeatherDisplay:10.37,2013-09-07 14:08:00,
2013-09-07 10:13:00,59.6,48.2,30.05,West,279,3.5,3.5,66,0.00,CLR,,0.00,WeatherDisplay:10.37,2013-09-07 14:13:00,
2013-09-07 10:18:00,59.7,47.9,30.06,WSW,240,5.8,5.8,65,0.00,CLR,,0.00,WeatherDisplay:10.37,2013-09-07 14:18:00,
2013-09-07 10:23:00,59.8,48.4,30.05,West,263,3.5,3.5,66,0.00,CLR,,0.00,WeatherDisplay:10.37,2013-09-07 14:23:00,
2013-09-07 10:28:00,59.6,47.8,30.06,WSW,253,0.0,0.3,65,0.00,CLR,,0.00,WeatherDisplay:10.37,2013-09-07 14:28:00,
2013-09-07 10:33:00,59.7,47.9,30.06,WSW,248,3.5,3.5,65,0.00,CLR,,0.00,WeatherDisplay:10.37,2013-09-07 14:33:00,
2013-09-07 10:38:00,59.9,47.7,30.05,WSW,250,3.5,3.5,64,0.00,CLR,,0.00,WeatherDisplay:10.37,2013-09-07 14:38:00,
2013-09-07 10:43:00,60.3,48.1,30.05,North,360,3.5,3.5,64,0.00,CLR,,0.00,WeatherDisplay:10.37,2013-09-07 14:43:00,
2013-09-07 10:48:00,61.1,48.0,30.05,SSE,151,4.0,4.0,62,0.00,CLR,,0.00,WeatherDisplay:10.37,2013-09-07 14:48:00,
2013-09-07 10:53:00,62.2,49.4,30.04,SE,132,1.2,1.2,63,0.00,CLR,,0.00,WeatherDisplay:10.37,2013-09-07 14:53:00,
2013-09-07 10:58:00,63.5,49.8,30.04,SE,138,2.3,2.3,61,0.00,CLR,,0.00,WeatherDisplay:10.37,2013-09-07 14:58:00,
2013-09-07 11:03:00,64.4,49.8,30.04,WSW,238,5.0,5.0,59,0.00,CLR,,0.00,WeatherDisplay:10.37,2013-09-07 15:03:00,
2013-09-07 11:08:00,64.3,44.7,30.04,WNW,295,7.0,7.0,49,0.00,CLR,,0.00,WeatherDisplay:10.37,2013-09-07 15:08:00,
2013-09-07 11:13:00,64.5,46.0,30.03,West,264,9.0,9.0,51,0.00,CLR,,0.00,WeatherDisplay:10.37,2013-09-07 15:13:00,
2013-09-07 11:18:00,64.1,43.4,30.03,WSW,246,9.2,9.2,47,0.00,CLR,,0.00,WeatherDisplay:10.37,2013-09-07 15:18:00,
2013-09-07 11:23:00,64.0,43.9,30.03,WSW,246,1.2,1.2,48,0.00,CLR,,0.00,WeatherDisplay:10.37,2013-09-07 15:23:00,
2013-09-07 11:28:00,64.6,43.9,30.03,WSW,254,4.6,4.6,47,0.00,CLR,,0.00,WeatherDisplay:10.37,2013-09-07 15:28:00,
2013-09-07 11:33:00,64.3,43.6,30.03,WSW,253,5.8,5.8,47,0.00,CLR,,0.00,WeatherDisplay:10.37,2013-09-07 15:33:00,
2013-09-07 11:38:00,64.5,45.4,30.03,SW,217,2.3,2.3,50,0.00,CLR,,0.00,WeatherDisplay:10.37,2013-09-07 15:38:00,
2013-09-07 11:43:00,64.3,43.6,30.03,West,261,2.3,2.3,47,0.00,CLR,,0.00,WeatherDisplay:10.37,2013-09-07 15:43:00,
2013-09-07 11:48:00,64.1,42.3,30.03,WSW,242,5.8,5.8,45,0.00,CLR,,0.00,WeatherDisplay:10.37,2013-09-07 15:48:00,
2013-09-07 11:53:00,64.3,44.2,30.03,West,268,2.3,2.3,48,0.00,CLR,,0.00,WeatherDisplay:10.37,2013-09-07 15:53:00,
2013-09-07 11:58:00,64.0,40.4,30.03,WNW,286,11.5,11.5,42,0.00,CLR,,0.00,WeatherDisplay:10.37,2013-09-07 15:58:00,
2013-09-07 12:03:00,63.9,41.0,30.03,WSW,244,4.0,4.0,43,0.00,CLR,,0.00,WeatherDisplay:10.37,2013-09-07 16:03:00,
2013-09-07 12:08:00,63.9,41.0,30.03,West,277,8.1,8.1,43,0.00,CLR,,0.00,WeatherDisplay:10.37,2013-09-07 16:08:00,
2013-09-07 12:13:00,63.5,41.2,30.03,WSW,252,6.9,6.9,44,0.00,CLR,,0.00,WeatherDisplay:10.37,2013-09-07 16:13:00,
2013-09-07 12:18:00,63.2,42.6,30.02,West,261,10.4,10.4,47,0.00,CLR,,0.00,WeatherDisplay:10.37,2013-09-07 16:18:00,
2013-09-07 12:23:00,63.4,43.9,30.02,West,269,5.8,5.8,49,0.00,CLR,,0.00,WeatherDisplay:10.37,2013-09-07 16:23:00,
2013-09-07 12:28:00,63.5,45.0,30.02,SSW,206,3.5,3.5,51,0.00,CLR,,0.00,WeatherDisplay:10.37,2013-09-07 16:28:00,
2013-09-07 12:34:00,63.6,46.1,30.02,ESE,104,3.5,3.5,53,0.00,CLR,,0.00,WeatherDisplay:10.37,2013-09-07 16:34:00,
2013-09-07 12:39:00,63.6,45.6,30.02,West,259,2.3,2.3,52,0.00,CLR,,0.00,WeatherDisplay:10.37,2013-09-07 16:39:00,
2013-09-07 12:44:00,63.5,46.6,30.02,West,271,5.8,5.8,54,0.00,CLR,,0.00,WeatherDisplay:10.37,2013-09-07 16:44:00,
2013-09-07 12:49:00,63.0,46.1,30.01,West,259,7.0,7.0,54,0.00,CLR,,0.00,WeatherDisplay:10.37,2013-09-07 16:49:00,
2013-09-07 12:54:00,63.1,46.7,30.01,West,263,6.9,6.9,55,0.00,CLR,,0.00,WeatherDisplay:10.37,2013-09-07 16:54:00,
2013-09-07 12:59:00,62.9,46.5,30.01,WNW,290,4.6,4.6,55,0.00,CLR,,0.00,WeatherDisplay:10.37,2013-09-07 16:59:00,
2013-09-07 13:04:00,63.1,47.1,30.01,West,265,5.8,5.8,56,0.00,CLR,,0.00,WeatherDisplay:10.37,2013-09-07 17:04:00,
2013-09-07 13:09:00,62.9,47.4,30.01,NNW,344,4.6,4.6,57,0.00,CLR,,0.00,WeatherDisplay:10.37,2013-09-07 17:09:00,
2013-09-07 13:14:00,62.9,47.4,30.01,NW,307,10.4,10.4,57,0.00,CLR,,0.00,WeatherDisplay:10.37,2013-09-07 17:14:00,
2013-09-07 13:19:00,63.3,48.3,30.01,SW,223,3.5,3.5,58,0.00,CLR,,0.00,WeatherDisplay:10.37,2013-09-07 17:19:00,
2013-09-07 13:24:00,63.6,47.6,30.00,NE,49,4.6,4.6,56,0.00,CLR,,0.00,WeatherDisplay:10.37,2013-09-07 17:24:00,
2013-09-07 13:29:00,64.0,48.5,30.00,ESE,113,2.3,2.3,57,0.00,CLR,,0.00,WeatherDisplay:10.37,2013-09-07 17:29:00,
2013-09-07 13:34:00,64.3,48.7,30.01,South,169,3.5,3.5,57,0.00,CLR,,0.00,WeatherDisplay:10.37,2013-09-07 17:34:00,
2013-09-07 13:39:00,63.9,48.4,30.00,WSW,253,5.8,5.8,57,0.00,CLR,,0.00,WeatherDisplay:10.37,2013-09-07 17:39:00,
2013-09-07 13:44:00,63.3,48.7,30.00,West,261,3.5,3.5,59,0.00,CLR,,0.00,WeatherDisplay:10.37,2013-09-07 17:44:00,
2013-09-07 13:49:00,63.4,48.4,30.00,NW,317,2.3,2.3,58,0.00,CLR,,0.00,WeatherDisplay:10.37,2013-09-07 17:49:00,
2013-09-07 13:54:00,63.3,49.2,30.00,NW,306,3.5,3.5,60,0.00,CLR,,0.00,WeatherDisplay:10.37,2013-09-07 17:54:00,
2013-09-07 13:59:00,62.9,48.8,30.00,WSW,257,3.5,3.5,60,0.00,CLR,,0.00,WeatherDisplay:10.37,2013-09-07 17:59:00,
2013-09-07 14:04:00,62.9,49.2,30.00,WSW,256,3.5,3.5,61,0.00,CLR,,0.00,WeatherDisplay:10.37,2013-09-07 18:04:00,
2013-09-07 14:09:00,62.9,49.2,30.00,West,260,8.1,8.1,61,0.00,CLR,,0.00,WeatherDisplay:10.37,2013-09-07 18:09:00,
2013-09-07 14:14:00,62.6,49.4,29.99,WSW,245,3.5,3.5,62,0.00,CLR,,0.00,WeatherDisplay:10.37,2013-09-07 18:14:00,
2013-09-07 14:19:00,62.6,49.4,29.99,SW,223,10.4,10.4,62,0.00,CLR,,0.00,WeatherDisplay:10.37,2013-09-07 18:19:00,
2013-09-07 14:24:00,62.3,49.1,29.99,WNW,300,4.6,4.6,62,0.00,CLR,,0.00,WeatherDisplay:10.37,2013-09-07 18:24:00,
2013-09-07 14:29:00,62.3,50.0,29.99,NNW,329,2.3,2.3,64,0.00,CLR,,0.00,WeatherDisplay:10.37,2013-09-07 18:29:00,
2013-09-07 14:34:00,62.3,50.0,29.99,SW,236,10.4,10.4,64,0.00,CLR,,0.00,WeatherDisplay:10.37,2013-09-07 18:34:00,
2013-09-07 14:39:00,61.8,49.5,29.99,WNW,287,3.5,3.5,64,0.00,CLR,,0.00,WeatherDisplay:10.37,2013-09-07 18:39:00,
2013-09-07 14:44:00,61.4,49.5,29.99,West,269,9.2,9.2,65,0.00,CLR,,0.00,WeatherDisplay:10.37,2013-09-07 18:44:00,
2013-09-07 14:49:00,61.2,50.2,29.99,SSE,152,2.3,2.3,67,0.00,CLR,,0.00,WeatherDisplay:10.37,2013-09-07 18:49:00,
2013-09-07 14:54:00,60.7,49.7,29.99,West,274,3.5,3.5,67,0.00,CLR,,0.00,WeatherDisplay:10.37,2013-09-07 18:54:00,
2013-09-07 14:59:00,60.5,50.3,29.98,NNW,341,1.2,1.2,69,0.00,CLR,,0.00,WeatherDisplay:10.37,2013-09-07 18:59:00,
2013-09-07 15:04:00,60.4,50.2,29.99,West,281,5.8,5.8,69,0.00,CLR,,0.00,WeatherDisplay:10.37,2013-09-07 19:04:00,
2013-09-07 15:09:00,60.3,50.5,29.98,WSW,246,3.5,3.5,70,0.00,CLR,,0.00,WeatherDisplay:10.37,2013-09-07 19:09:00,
2013-09-07 15:14:00,60.1,51.0,29.99,SE,129,3.5,3.5,72,0.00,CLR,,0.00,WeatherDisplay:10.37,2013-09-07 19:14:00,
2013-09-07 15:19:00,60.2,50.0,29.99,NE,41,3.5,3.5,69,0.00,CLR,,0.00,WeatherDisplay:10.37,2013-09-07 19:19:00,
2013-09-07 15:24:00,59.7,49.5,29.99,West,271,2.3,2.3,69,0.00,CLR,,0.00,WeatherDisplay:10.37,2013-09-07 19:24:00,
2013-09-07 15:29:00,59.4,50.0,29.99,West,259,6.0,6.0,71,0.00,CLR,,0.00,WeatherDisplay:10.37,2013-09-07 19:29:00,
2013-09-07 15:34:00,59.0,48.4,29.99,WSW,253,4.0,4.0,68,0.00,CLR,,0.00,WeatherDisplay:10.37,2013-09-07 19:34:00,
2013-09-07 15:39:00,58.8,48.3,29.99,WSW,252,1.2,0.0,68,0.00,CLR,,0.00,WeatherDisplay:10.37,2013-09-07 19:39:00,
2013-09-07 15:44:00,58.6,47.3,29.98,WSW,247,4.6,4.6,66,0.00,CLR,,0.00,WeatherDisplay:10.37,2013-09-07 19:44:00,
2013-09-07 15:49:00,58.3,47.0,29.98,SW,223,2.3,2.3,66,0.00,CLR,,0.00,WeatherDisplay:10.37,2013-09-07 19:49:00,
2013-09-07 15:54:00,58.4,47.1,29.98,SSE,160,2.3,2.3,66,0.00,CLR,,0.00,WeatherDisplay:10.37,2013-09-07 19:54:00,
2013-09-07 15:59:00,58.3,47.0,29.97,West,265,1.2,1.2,66,0.00,CLR,,0.00,WeatherDisplay:10.37,2013-09-07 19:59:00,
2013-09-07 16:04:00,58.5,48.0,29.97,SSW,207,2.3,2.3,68,0.00,CLR,,0.00,WeatherDisplay:10.37,2013-09-07 20:04:00,
2013-09-07 16:09:00,59.0,46.4,29.97,SSE,157,2.3,2.3,63,0.00,CLR,,0.00,WeatherDisplay:10.37,2013-09-07 20:09:00,
2013-09-07 16:14:00,59.0,46.0,29.97,SW,220,2.3,2.3,62,0.00,CLR,,0.00,WeatherDisplay:10.37,2013-09-07 20:14:00,
2013-09-07 16:19:00,58.6,45.6,29.96,SSW,205,2.3,2.3,62,0.00,CLR,,0.00,WeatherDisplay:10.37,2013-09-07 20:19:00,
2013-09-07 16:24:00,58.5,45.5,29.97,SE,138,1.2,1.2,62,0.00,CLR,,0.00,WeatherDisplay:10.37,2013-09-07 20:24:00,
2013-09-07 16:29:00,58.5,45.5,29.97,West,276,4.6,4.6,62,0.00,CLR,,0.00,WeatherDisplay:10.37,2013-09-07 20:29:00,
2013-09-07 16:34:00,58.5,45.9,29.96,WNW,302,1.2,0.0,63,0.00,CLR,,0.00,WeatherDisplay:10.37,2013-09-07 20:34:00,
2013-09-07 16:39:00,58.5,45.9,29.96,WSW,252,4.6,4.6,63,0.00,CLR,,0.00,WeatherDisplay:10.37,2013-09-07 20:39:00,
2013-09-07 16:44:00,58.4,45.8,29.96,SSE,152,3.5,3.5,63,0.00,CLR,,0.00,WeatherDisplay:10.37,2013-09-07 20:44:00,
2013-09-07 16:49:00,58.3,45.8,29.96,WNW,288,1.2,0.0,63,0.00,CLR,,0.00,WeatherDisplay:10.37,2013-09-07 20:49:00,
2013-09-07 16:54:00,58.2,46.1,29.95,WNW,288,1.2,1.2,64,0.00,CLR,,0.00,WeatherDisplay:10.37,2013-09-07 20:54:00,
2013-09-07 16:59:00,58.3,46.2,29.95,West,266,1.2,1.2,64,0.00,CLR,,0.00,WeatherDisplay:10.37,2013-09-07 20:59:00,
2013-09-07 17:04:00,58.5,46.4,29.95,West,271,3.0,3.0,64,0.00,CLR,,0.00,WeatherDisplay:10.37,2013-09-07 21:04:00,
2013-09-07 17:09:00,58.1,46.0,29.95,West,259,3.5,3.5,64,0.00,CLR,,0.00,WeatherDisplay:10.37,2013-09-07 21:09:00,
2013-09-07 17:14:00,58.0,46.3,29.96,West,265,1.2,1.2,65,0.00,CLR,,0.00,WeatherDisplay:10.37,2013-09-07 21:14:00,
2013-09-07 17:19:00,58.0,46.3,29.96,West,262,1.2,0.0,65,0.00,CLR,,0.00,WeatherDisplay:10.37,2013-09-07 21:19:00,
2013-09-07 17:24:00,58.1,47.2,29.96,West,261,1.2,0.0,67,0.00,CLR,,0.00,WeatherDisplay:10.37,2013-09-07 21:24:00,
2013-09-07 17:29:00,57.9,46.6,29.96,SSE,160,3.5,3.5,66,0.00,CLR,,0.00,WeatherDisplay:10.37,2013-09-07 21:29:00,
2013-09-07 17:34:00,57.8,45.3,29.96,West,260,3.5,3.5,63,0.00,CLR,,0.00,WeatherDisplay:10.37,2013-09-07 21:34:00,
2013-09-07 17:39:00,57.6,45.1,29.96,NNW,340,2.3,2.3,63,0.00,CLR,,0.00,WeatherDisplay:10.37,2013-09-07 21:39:00,
2013-09-07 17:44:00,57.4,45.7,29.96,WNW,292,4.6,4.6,65,0.00,CLR,,0.00,WeatherDisplay:10.37,2013-09-07 21:44:00,
2013-09-07 17:49:00,57.5,46.6,29.96,SSE,155,4.6,4.6,67,0.00,CLR,,0.00,WeatherDisplay:10.37,2013-09-07 21:49:00,
2013-09-07 17:54:00,57.3,47.2,29.96,ESE,122,2.3,2.3,69,0.00,CLR,,0.01,WeatherDisplay:10.37,2013-09-07 21:54:00,
2013-09-07 17:59:00,56.9,48.0,29.96,ESE,123,3.0,3.0,72,0.01,RA,,0.01,WeatherDisplay:10.37,2013-09-07 21:59:00,
2013-09-07 18:04:00,56.7,48.1,29.96,SSE,156,1.2,1.2,73,0.01,RA,,0.01,WeatherDisplay:10.37,2013-09-07 22:04:00,
2013-09-07 18:09:00,55.9,48.1,29.96,WSW,256,0.0,0.0,75,0.01,CLR,,0.01,WeatherDisplay:10.37,2013-09-07 22:09:00,
2013-09-07 18:14:00,55.7,48.2,29.95,WSW,256,1.2,1.2,76,0.01,CLR,,0.01,WeatherDisplay:10.37,2013-09-07 22:14:00,
2013-09-07 18:19:00,55.4,48.7,29.95,WSW,256,1.2,0.0,78,0.01,CLR,,0.01,WeatherDisplay:10.37,2013-09-07 22:19:00,
2013-09-07 18:24:00,55.4,48.7,29.95,WSW,240,3.5,3.5,78,0.01,CLR,,0.01,WeatherDisplay:10.37,2013-09-07 22:24:00,
2013-09-07 18:29:00,55.5,49.1,29.95,SSE,158,1.2,1.2,79,0.01,CLR,,0.01,WeatherDisplay:10.37,2013-09-07 22:29:00,
2013-09-07 18:34:00,55.8,49.7,29.95,SSE,158,1.2,1.2,80,0.01,CLR,,0.01,WeatherDisplay:10.37,2013-09-07 22:34:00,
2013-09-07 18:39:00,55.7,49.3,29.94,ESE,117,1.2,1.2,79,0.01,CLR,,0.01,WeatherDisplay:10.37,2013-09-07 22:39:00,
2013-09-07 18:44:00,55.8,49.4,29.95,SSE,152,1.2,1.2,79,0.01,CLR,,0.01,WeatherDisplay:10.37,2013-09-07 22:44:00,
2013-09-07 18:49:00,55.6,49.2,29.95,South,179,1.2,1.2,79,0.01,CLR,,0.01,WeatherDisplay:10.37,2013-09-07 22:49:00,
2013-09-07 18:54:00,55.9,49.8,29.95,South,169,3.0,3.0,80,0.01,CLR,,0.01,WeatherDisplay:10.37,2013-09-07 22:54:00,
2013-09-07 18:59:00,56.0,49.9,29.95,SSE,153,0.0,0.2,80,0.00,CLR,,0.01,WeatherDisplay:10.37,2013-09-07 22:59:00,
2013-09-07 19:04:00,55.9,49.8,29.95,SSE,154,0.0,0.0,80,0.00,CLR,,0.01,WeatherDisplay:10.37,2013-09-07 23:04:00,
2013-09-07 19:09:00,56.1,50.3,29.95,SSE,167,1.2,1.2,81,0.00,CLR,,0.01,WeatherDisplay:10.37,2013-09-07 23:09:00,
2013-09-07 19:14:00,56.1,50.3,29.94,SSE,147,1.2,1.2,81,0.00,CLR,,0.01,WeatherDisplay:10.37,2013-09-07 23:14:00,
2013-09-07 19:19:00,56.0,49.9,29.94,SE,145,1.2,0.0,80,0.00,CLR,,0.01,WeatherDisplay:10.37,2013-09-07 23:19:00,
2013-09-07 19:24:00,56.0,50.3,29.94,SSE,165,3.5,3.5,81,0.00,CLR,,0.01,WeatherDisplay:10.37,2013-09-07 23:24:00,
2013-09-07 19:29:00,56.2,50.1,29.94,ESE,115,3.5,3.5,80,0.00,CLR,,0.01,WeatherDisplay:10.37,2013-09-07 23:29:00,
2013-09-07 19:34:00,56.3,50.2,29.94,SSE,163,1.2,1.2,80,0.00,CLR,,0.01,WeatherDisplay:10.37,2013-09-07 23:34:00,
2013-09-07 19:39:00,56.4,50.3,29.94,South,178,2.3,2.3,80,0.00,CLR,,0.01,WeatherDisplay:10.37,2013-09-07 23:39:00,
2013-09-07 19:44:00,56.8,51.0,29.94,SSE,163,4.6,4.6,81,0.00,CLR,,0.01,WeatherDisplay:10.37,2013-09-07 23:44:00,
2013-09-07 19:49:00,56.9,50.8,29.94,SSE,157,3.0,3.0,80,0.00,CLR,,0.01,WeatherDisplay:10.37,2013-09-07 23:49:00,
2013-09-07 19:54:00,56.7,50.6,29.94,SW,230,1.2,1.2,80,0.00,CLR,,0.01,WeatherDisplay:10.37,2013-09-07 23:54:00,
2013-09-07 19:59:00,56.5,50.4,29.94,SE,140,3.5,3.5,80,0.00,CLR,,0.01,WeatherDisplay:10.37,2013-09-07 23:59:00,
2013-09-07 20:04:00,56.6,50.8,29.94,SSE,159,3.5,3.5,81,0.00,CLR,,0.01,WeatherDisplay:10.37,2013-09-08 00:04:00,
2013-09-07 20:09:00,56.5,50.7,29.93,SSE,157,1.2,1.2,81,0.00,CLR,,0.01,WeatherDisplay:10.37,2013-09-08 00:09:00,
2013-09-07 20:14:00,56.7,51.3,29.93,South,175,3.5,3.5,82,0.00,CLR,,0.01,WeatherDisplay:10.37,2013-09-08 00:14:00,
2013-09-07 20:19:00,56.7,51.3,29.93,SSE,156,2.3,2.3,82,0.00,CLR,,0.01,WeatherDisplay:10.37,2013-09-08 00:19:00,
2013-09-07 20:24:00,56.7,51.3,29.93,SSE,157,3.0,3.0,82,0.00,CLR,,0.01,WeatherDisplay:10.37,2013-09-08 00:24:00,
2013-09-07 20:29:00,56.8,51.0,29.93,SSE,157,1.0,1.0,81,0.00,CLR,,0.01,WeatherDisplay:10.37,2013-09-08 00:29:00,
2013-09-07 20:34:00,56.8,51.4,29.93,SE,125,1.2,1.2,82,0.00,CLR,,0.01,WeatherDisplay:10.37,2013-09-08 00:34:00,
2013-09-07 20:39:00,56.6,51.2,29.93,SE,128,1.2,0.0,82,0.00,CLR,,0.01,WeatherDisplay:10.37,2013-09-08 00:39:00,
2013-09-07 20:44:00,56.5,51.1,29.93,ESE,123,2.3,2.3,82,0.00,CLR,,0.01,WeatherDisplay:10.37,2013-09-08 00:44:00,
2013-09-07 20:49:00,56.4,51.0,29.93,South,188,2.0,2.0,82,0.00,CLR,,0.01,WeatherDisplay:10.37,2013-09-08 00:49:00,
2013-09-07 20:54:00,56.5,51.4,29.93,South,187,2.3,2.3,83,0.00,CLR,,0.01,WeatherDisplay:10.37,2013-09-08 00:54:00,
2013-09-07 20:59:00,56.5,51.4,29.93,South,184,3.5,3.5,83,0.00,CLR,,0.01,WeatherDisplay:10.37,2013-09-08 00:59:00,
2013-09-07 21:04:00,56.6,51.5,29.93,South,178,2.3,2.3,83,0.00,CLR,,0.01,WeatherDisplay:10.37,2013-09-08 01:04:00,
2013-09-07 21:09:00,56.7,51.6,29.93,South,178,1.2,1.2,83,0.00,CLR,,0.01,WeatherDisplay:10.37,2013-09-08 01:09:00,
2013-09-07 21:14:00,56.8,52.0,29.93,South,173,3.5,3.5,84,0.00,CLR,,0.01,WeatherDisplay:10.37,2013-09-08 01:14:00,
2013-09-07 21:19:00,57.0,51.9,29.93,SSE,152,1.2,1.2,83,0.00,CLR,,0.01,WeatherDisplay:10.37,2013-09-08 01:19:00,
2013-09-07 21:24:00,56.9,51.8,29.92,SSE,147,1.2,1.2,83,0.00,CLR,,0.01,WeatherDisplay:10.37,2013-09-08 01:24:00,
2013-09-07 21:29:00,56.9,52.1,29.92,SSE,153,3.5,3.5,84,0.00,CLR,,0.01,WeatherDisplay:10.37,2013-09-08 01:29:00,
2013-09-07 21:34:00,56.9,51.8,29.92,SSE,153,1.2,0.0,83,0.00,CLR,,0.01,WeatherDisplay:10.37,2013-09-08 01:34:00,
2013-09-07 21:39:00,56.8,51.7,29.92,WSW,253,3.5,3.5,83,0.00,CLR,,0.01,WeatherDisplay:10.37,2013-09-08 01:39:00,
2013-09-07 21:44:00,56.7,51.9,29.92,WSW,252,2.0,2.0,84,0.00,CLR,,0.01,WeatherDisplay:10.37,2013-09-08 01:44:00,
2013-09-07 21:49:00,56.6,51.8,29.92,WSW,250,1.2,1.2,84,0.00,CLR,,0.01,WeatherDisplay:10.37,2013-09-08 01:49:00,
2013-09-07 21:54:00,56.6,51.8,29.92,WSW,245,2.3,2.3,84,0.00,CLR,,0.01,WeatherDisplay:10.37,2013-09-08 01:54:00,
2013-09-07 21:59:00,56.4,51.6,29.91,WSW,246,0.0,0.0,84,0.00,CLR,,0.01,WeatherDisplay:10.37,2013-09-08 01:59:00,
2013-09-07 22:04:00,56.4,51.9,29.91,West,265,2.3,2.3,85,0.00,CLR,,0.01,WeatherDisplay:10.37,2013-09-08 02:04:00,
2013-09-07 22:09:00,56.4,51.9,29.92,WNW,298,4.0,4.0,85,0.00,CLR,,0.01,WeatherDisplay:10.37,2013-09-08 02:09:00,
2013-09-07 22:14:00,56.4,51.9,29.91,NW,304,3.5,3.5,85,0.00,CLR,,0.01,WeatherDisplay:10.37,2013-09-08 02:14:00,
2013-09-07 22:19:00,56.3,51.8,29.91,WNW,300,1.2,1.3,85,0.00,CLR,,0.01,WeatherDisplay:10.37,2013-09-08 02:19:00,
2013-09-07 22:24:00,56.3,51.8,29.90,WNW,301,0.0,0.2,85,0.00,CLR,,0.01,WeatherDisplay:10.37,2013-09-08 02:24:00,
2013-09-07 22:29:00,56.4,52.3,29.91,ENE,77,0.0,0.0,86,0.00,CLR,,0.01,WeatherDisplay:10.37,2013-09-08 02:29:00,
2013-09-07 22:34:00,56.5,52.4,29.91,ENE,77,0.0,0.0,86,0.00,CLR,,0.01,WeatherDisplay:10.37,2013-09-08 02:34:00,
2013-09-07 22:39:00,56.5,52.4,29.91,NW,319,2.0,2.0,86,0.00,CLR,,0.01,WeatherDisplay:10.37,2013-09-08 02:39:00,
2013-09-07 22:44:00,56.5,52.4,29.91,North,355,2.3,2.3,86,0.00,CLR,,0.01,WeatherDisplay:10.37,2013-09-08 02:44:00,
2013-09-07 22:49:00,56.4,52.3,29.91,NW,317,3.5,3.5,86,0.00,CLR,,0.01,WeatherDisplay:10.37,2013-09-08 02:49:00,
2013-09-07 22:54:00,56.3,52.2,29.91,West,263,3.5,3.5,86,0.00,CLR,,0.01,WeatherDisplay:10.37,2013-09-08 02:54:00,
2013-09-07 22:59:00,56.2,52.4,29.91,WNW,283,2.3,2.3,87,0.00,CLR,,0.01,WeatherDisplay:10.37,2013-09-08 02:59:00,
2013-09-07 23:04:00,56.1,52.3,29.90,NW,322,3.5,3.5,87,0.00,CLR,,0.01,WeatherDisplay:10.37,2013-09-08 03:04:00,
2013-09-07 23:09:00,56.0,52.5,29.90,NW,323,2.3,2.3,88,0.00,CLR,,0.01,WeatherDisplay:10.37,2013-09-08 03:09:00,
2013-09-07 23:14:00,55.9,52.4,29.90,WNW,302,4.0,4.0,88,0.00,CLR,,0.01,WeatherDisplay:10.37,2013-09-08 03:14:00,
2013-09-07 23:19:00,55.6,52.4,29.90,West,269,1.0,7.0,89,0.00,CLR,,0.01,WeatherDisplay:10.37,2013-09-08 03:19:00,
2013-09-07 23:24:00,55.3,52.1,29.90,West,263,1.0,3.0,89,0.00,CLR,,0.01,WeatherDisplay:10.37,2013-09-08 03:24:00,
2013-09-07 23:29:00,55.0,51.8,29.91,West,277,0.0,2.0,89,0.00,CLR,,0.01,WeatherDisplay:10.37,2013-09-08 03:29:00,
2013-09-07 23:34:00,54.8,51.9,29.90,West,279,2.0,4.0,90,0.00,CLR,,0.01,WeatherDisplay:10.37,2013-09-08 03:34:00,
2013-09-07 23:39:00,54.5,51.6,29.91,West,270,2.0,4.0,90,0.00,CLR,,0.01,WeatherDisplay:10.37,2013-09-08 03:39:00,
2013-09-07 23:44:00,54.3,51.4,29.90,West,272,0.0,3.0,90,0.00,CLR,,0.01,WeatherDisplay:10.37,2013-09-08 03:44:00,
2013-09-07 23:49:00,54.2,51.3,29.90,West,276,0.0,1.0,90,0.00,CLR,,0.01,WeatherDisplay:10.37,2013-09-08 03:49:00,
2013-09-07 23:54:00,54.1,51.2,29.90,West,276,2.3,0.0,90,0.00,CLR,,0.01,WeatherDisplay:10.37,2013-09-08 03:54:00,
2013-09-07 23:59:00,53.9,51.3,29.90,West,276,1.0,0.0,91,0.00,CLR,,0.01,WeatherDisplay:10.37,2013-09-08 03:59:00,